createdAt,value
2019-02-28T00:01:03.848Z,18.60
2019-02-28T00:03:32.782Z,19.57
2019-02-28T00:06:01.168Z,19.80
2019-02-28T00:08:29.564Z,19.40
2019-02-28T00:10:57.958Z,19.00
2019-02-28T00:13:26.618Z,18.03
2019-02-28T00:15:55.243Z,18.43
2019-02-28T00:18:23.975Z,16.23
2019-02-28T00:20:52.672Z,18.20
2019-02-28T00:23:22.020Z,18.20
2019-02-28T00:25:51.777Z,18.20
2019-02-28T00:28:23.083Z,18.83
2019-02-28T00:30:50.503Z,17.83
2019-02-28T00:33:18.899Z,17.60
2019-02-28T00:35:47.279Z,18.17
2019-02-28T00:38:15.679Z,18.50
2019-02-28T00:40:44.074Z,17.32
2019-02-28T00:43:12.779Z,18.90
2019-02-28T00:45:41.175Z,17.40
2019-02-28T00:48:09.563Z,17.07
2019-02-28T00:50:37.956Z,20.57
2019-02-28T00:53:07.365Z,20.00
2019-02-28T00:55:36.462Z,18.07
2019-02-28T00:58:05.171Z,19.75
2019-02-28T01:00:37.045Z,18.17
2019-02-28T01:03:03.695Z,18.82
2019-02-28T01:05:32.086Z,18.42
2019-02-28T01:08:00.766Z,21.17
2019-02-28T01:11:10.421Z,17.83
2019-02-28T01:14:01.595Z,18.90
2019-02-28T01:16:28.635Z,21.02
2019-02-28T01:18:57.078Z,20.67
2019-02-28T01:21:25.714Z,18.80
2019-02-28T01:23:54.427Z,19.20
2019-02-28T01:26:22.835Z,18.92
2019-02-28T01:28:51.492Z,19.95
2019-02-28T01:31:20.182Z,21.35
2019-02-28T01:33:48.583Z,18.55
2019-02-28T01:36:16.985Z,18.98
2019-02-28T01:38:45.383Z,19.55
2019-02-28T01:41:14.102Z,19.12
2019-02-28T01:43:42.496Z,19.10
2019-02-28T01:46:10.898Z,19.90
2019-02-28T01:48:39.292Z,18.35
2019-02-28T01:51:07.760Z,18.77
2019-02-28T01:53:36.151Z,19.70
2019-02-28T01:56:04.786Z,18.90
2019-02-28T01:58:33.467Z,18.80
2019-02-28T02:04:12.595Z,19.20
2019-02-28T02:06:40.122Z,18.30
2019-02-28T02:09:48.437Z,17.37
2019-02-28T02:12:16.866Z,18.87
2019-02-28T02:14:45.815Z,18.62
2019-02-28T02:17:15.775Z,18.55
2019-02-28T02:19:44.167Z,18.48
2019-02-28T02:22:12.847Z,20.00
2019-02-28T02:24:41.244Z,18.87
2019-02-28T02:27:09.911Z,18.77
2019-02-28T02:29:38.316Z,18.80
2019-02-28T02:32:06.955Z,21.00
2019-02-28T02:34:35.346Z,19.52
2019-02-28T02:37:03.744Z,19.90
2019-02-28T02:39:32.419Z,19.20
2019-02-28T02:42:01.103Z,19.17
2019-02-28T02:44:31.823Z,19.75
2019-02-28T02:46:59.925Z,17.67
2019-02-28T02:49:28.308Z,19.42
2019-02-28T02:51:56.720Z,17.95
2019-02-28T02:54:25.396Z,20.05
2019-02-28T02:56:54.046Z,18.67
2019-02-28T02:59:22.444Z,20.82
2019-02-28T03:01:50.837Z,20.05
2019-02-28T03:04:22.945Z,20.43
2019-02-28T03:06:49.704Z,19.32
2019-02-28T03:09:18.108Z,19.32
2019-02-28T03:11:46.492Z,18.33
2019-02-28T03:14:16.421Z,20.60
2019-02-28T03:16:45.249Z,19.70
2019-02-28T03:19:13.951Z,21.45
2019-02-28T03:21:42.348Z,19.85
2019-02-28T03:24:14.613Z,19.12
2019-02-28T03:26:42.002Z,18.90
2019-02-28T03:29:11.277Z,17.95
2019-02-28T03:31:39.951Z,18.90
2019-02-28T03:34:12.920Z,18.52
2019-02-28T03:36:38.700Z,19.32
2019-02-28T03:39:47.236Z,18.82
2019-02-28T03:42:15.653Z,18.55
2019-02-28T03:44:44.330Z,18.80
2019-02-28T03:47:12.739Z,18.52
2019-02-28T03:49:48.391Z,19.50
2019-02-28T03:52:11.247Z,18.95
2019-02-28T03:54:39.651Z,19.55
2019-02-28T03:57:08.182Z,19.55
2019-02-28T03:59:36.589Z,20.85
2019-02-28T04:02:04.980Z,20.95
2019-02-28T04:04:33.448Z,19.55
2019-02-28T04:07:02.225Z,19.57
2019-02-28T04:09:30.889Z,19.20
2019-02-28T04:12:06.982Z,18.82
2019-02-28T04:14:33.038Z,18.00
2019-02-28T04:16:59.813Z,19.20
2019-02-28T04:19:28.278Z,19.23
2019-02-28T04:21:56.667Z,20.30
2019-02-28T04:24:25.085Z,17.75
2019-02-28T04:26:53.731Z,18.80
2019-02-28T04:29:26.277Z,18.87
2019-02-28T04:31:52.851Z,19.02
2019-02-28T04:34:21.244Z,20.27
2019-02-28T04:36:49.648Z,18.32
2019-02-28T04:39:18.288Z,19.70
2019-02-28T04:41:46.696Z,19.35
2019-02-28T04:44:15.401Z,19.07
2019-02-28T04:46:45.209Z,19.12
2019-02-28T04:49:13.844Z,20.43
2019-02-28T04:51:42.231Z,19.77
2019-02-28T04:54:10.634Z,19.12
2019-02-28T04:56:39.032Z,19.17
2019-02-28T04:59:07.437Z,18.12
2019-02-28T05:01:36.156Z,19.73
2019-02-28T05:04:04.546Z,19.10
2019-02-28T05:06:33.219Z,20.17
2019-02-28T05:09:01.860Z,19.20
2019-02-28T05:11:31.464Z,18.70
2019-02-28T05:14:01.058Z,20.82
2019-02-28T05:16:29.702Z,19.67
2019-02-28T05:19:01.419Z,19.37
2019-02-28T05:21:50.668Z,19.00
2019-02-28T05:24:18.010Z,20.35
2019-02-28T05:26:46.666Z,20.62
2019-02-28T05:29:15.292Z,20.23
2019-02-28T05:31:43.708Z,20.00
2019-02-28T05:34:13.165Z,18.87
2019-02-28T05:36:42.453Z,19.57
2019-02-28T05:39:31.011Z,20.05
2019-02-28T05:42:00.303Z,19.57
2019-02-28T05:44:28.695Z,19.42
2019-02-28T05:46:58.097Z,22.48
2019-02-28T05:49:27.213Z,21.45
2019-02-28T05:51:58.687Z,19.75
2019-02-28T05:54:25.709Z,18.90
2019-02-28T05:56:54.120Z,19.25
2019-02-28T05:59:26.005Z,20.72
2019-02-28T06:01:52.624Z,20.97
2019-02-28T06:04:21.016Z,19.80
2019-02-28T06:06:51.485Z,20.25
2019-02-28T06:09:19.545Z,20.62
2019-02-28T06:11:48.182Z,20.82
2019-02-28T06:14:16.895Z,20.72
2019-02-28T06:16:46.721Z,20.40
2019-02-28T06:22:10.699Z,20.32
2019-02-28T06:24:39.092Z,18.95
2019-02-28T06:27:07.658Z,19.12
2019-02-28T06:29:36.778Z,19.87
2019-02-28T06:32:06.194Z,18.98
2019-02-28T06:34:34.582Z,18.17
2019-02-28T06:37:03.688Z,18.40
2019-02-28T06:39:33.105Z,19.45
2019-02-28T06:42:01.482Z,19.90
2019-02-28T06:44:29.888Z,20.05
2019-02-28T06:46:58.514Z,19.30
2019-02-28T06:49:27.167Z,21.45
2019-02-28T06:51:55.851Z,18.92
2019-02-28T06:54:24.539Z,20.95
2019-02-28T06:56:54.031Z,19.25
2019-02-28T06:59:23.088Z,17.10
2019-02-28T07:01:56.195Z,18.45
2019-02-28T07:04:21.851Z,18.92
2019-02-28T07:06:50.475Z,19.65
2019-02-28T07:09:18.880Z,20.97
2019-02-28T07:11:47.502Z,21.73
2019-02-28T07:14:15.900Z,20.90
2019-02-28T07:16:44.307Z,22.73
2019-02-28T07:19:12.935Z,23.38
2019-02-28T07:21:43.873Z,22.30
2019-02-28T07:24:11.691Z,22.00
2019-02-28T07:26:40.338Z,22.98
2019-02-28T07:29:28.069Z,23.55
2019-02-28T07:31:59.960Z,21.60
2019-02-28T07:34:26.583Z,21.57
2019-02-28T07:36:55.241Z,21.00
2019-02-28T07:39:23.650Z,21.63
2019-02-28T07:41:52.030Z,20.13
2019-02-28T07:44:22.218Z,21.27
2019-02-28T07:46:50.807Z,23.57
2019-02-28T07:49:19.486Z,19.13
2019-02-28T07:51:47.888Z,18.97
2019-02-28T07:54:16.691Z,19.77
2019-02-28T07:56:46.370Z,20.33
2019-02-28T07:59:14.994Z,19.13
2019-02-28T08:01:43.451Z,18.93
2019-02-28T08:04:11.859Z,20.43
2019-02-28T08:06:40.489Z,19.73
2019-02-28T08:09:30.287Z,19.97
2019-02-28T08:11:58.656Z,20.53
2019-02-28T08:14:27.047Z,20.67
2019-02-28T08:16:55.820Z,19.90
2019-02-28T08:19:27.178Z,19.77
2019-02-28T08:21:54.627Z,20.87
2019-02-28T08:24:23.010Z,21.50
2019-02-28T08:26:53.510Z,21.43
2019-02-28T08:29:22.049Z,19.17
2019-02-28T08:31:50.464Z,20.97
2019-02-28T08:34:20.571Z,20.00
2019-02-28T08:36:49.507Z,20.60
2019-02-28T08:39:57.818Z,21.30
2019-02-28T08:42:26.438Z,20.87
2019-02-28T08:44:58.950Z,21.60
2019-02-28T08:47:25.456Z,21.90
2019-02-28T08:49:53.834Z,22.03
2019-02-28T08:52:22.480Z,23.57
2019-02-28T08:54:50.863Z,22.83
2019-02-28T08:57:22.018Z,22.40
2019-02-28T08:59:49.364Z,22.23
2019-02-28T09:02:18.979Z,21.50
2019-02-28T09:04:50.853Z,21.83
2019-02-28T09:07:18.511Z,19.20
2019-02-28T09:09:46.895Z,22.00
2019-02-28T09:12:15.295Z,21.60
2019-02-28T09:14:43.932Z,22.40
2019-02-28T09:17:12.336Z,22.97
2019-02-28T09:20:00.352Z,22.20
2019-02-28T09:23:08.920Z,22.83
2019-02-28T09:25:37.305Z,20.70
2019-02-28T09:28:47.503Z,20.37
2019-02-28T09:31:15.981Z,20.77
2019-02-28T09:33:44.683Z,20.73
2019-02-28T09:36:32.419Z,19.90
2019-02-28T09:39:00.811Z,21.70
2019-02-28T09:41:29.218Z,19.93
2019-02-28T09:44:00.206Z,20.17
2019-02-28T09:46:28.206Z,20.47
2019-02-28T09:48:56.859Z,19.60
2019-02-28T09:51:44.584Z,19.80
2019-02-28T09:54:13.052Z,20.10
2019-02-28T09:57:01.235Z,19.77
2019-02-28T09:59:29.604Z,19.47
2019-02-28T10:02:17.636Z,20.30
2019-02-28T10:04:46.040Z,20.80
2019-02-28T10:07:14.435Z,19.60
2019-02-28T10:09:44.354Z,19.60
2019-02-28T10:12:13.204Z,19.20
2019-02-28T10:14:41.610Z,18.47
2019-02-28T10:17:10.046Z,18.03
2019-02-28T10:19:45.575Z,17.17
2019-02-28T10:22:10.102Z,17.63
2019-02-28T10:24:39.291Z,19.10
2019-02-28T10:27:07.975Z,18.47
2019-02-28T10:29:38.456Z,15.50
2019-02-28T10:32:08.961Z,16.87
2019-02-28T10:34:36.897Z,19.00
2019-02-28T10:37:05.292Z,16.73
2019-02-28T10:39:33.676Z,16.73
2019-02-28T10:42:05.213Z,18.20
2019-02-28T10:44:32.456Z,16.63
2019-02-28T10:47:01.155Z,18.37
2019-02-28T10:49:29.554Z,16.40
2019-02-28T10:51:58.216Z,17.23
2019-02-28T10:54:26.913Z,18.07
2019-02-28T10:56:55.536Z,16.13
2019-02-28T10:59:24.500Z,15.90
2019-02-28T11:01:54.595Z,16.10
2019-02-28T11:04:23.288Z,15.17
2019-02-28T11:06:51.967Z,16.17
2019-02-28T11:09:21.408Z,16.37
2019-02-28T11:11:50.533Z,16.50
2019-02-28T11:14:18.928Z,15.40
2019-02-28T11:16:47.632Z,16.13
2019-02-28T11:19:18.631Z,14.00
2019-02-28T11:21:46.440Z,14.60
2019-02-28T11:24:14.965Z,15.87
2019-02-28T11:26:44.887Z,16.00
2019-02-28T11:29:13.839Z,15.50
2019-02-28T11:31:42.616Z,16.97
2019-02-28T11:34:14.787Z,15.90
2019-02-28T11:36:41.516Z,17.50
2019-02-28T11:39:50.116Z,15.70
2019-02-28T11:42:18.727Z,16.77
2019-02-28T11:44:47.706Z,15.77
2019-02-28T11:47:17.244Z,15.60
2019-02-28T11:49:45.717Z,14.40
2019-02-28T11:52:15.953Z,14.23
2019-02-28T11:54:45.331Z,16.63
2019-02-28T11:57:15.354Z,14.50
2019-02-28T11:59:43.744Z,15.17
2019-02-28T12:02:12.148Z,14.60
2019-02-28T12:04:41.198Z,13.77
2019-02-28T12:07:10.660Z,16.10
2019-02-28T12:09:39.055Z,15.20
2019-02-28T12:12:10.415Z,13.67
2019-02-28T12:14:37.636Z,15.37
2019-02-28T12:17:06.393Z,15.10
2019-02-28T12:19:35.062Z,15.20
2019-02-28T12:22:03.754Z,15.37
2019-02-28T12:24:33.181Z,16.00
2019-02-28T12:27:04.101Z,15.00
2019-02-28T12:29:32.991Z,14.30
2019-02-28T12:32:01.666Z,16.27
2019-02-28T12:34:30.085Z,16.40
2019-02-28T12:36:59.875Z,15.10
2019-02-28T12:39:28.865Z,15.40
2019-02-28T12:41:59.514Z,14.80
2019-02-28T12:44:27.771Z,14.40
2019-02-28T12:46:56.154Z,14.73
2019-02-28T12:49:26.162Z,15.07
2019-02-28T12:51:55.470Z,15.23
2019-02-28T12:54:25.964Z,17.20
2019-02-28T12:56:54.238Z,14.33
2019-02-28T12:59:46.046Z,17.37
2019-02-28T13:02:12.398Z,18.10
2019-02-28T13:05:00.470Z,17.13
2019-02-28T13:07:30.424Z,16.70
2019-02-28T13:09:59.673Z,19.93
2019-02-28T13:12:28.296Z,18.23
2019-02-28T13:14:57.153Z,19.10
2019-02-28T13:17:28.324Z,18.37
2019-02-28T13:19:56.563Z,18.53
2019-02-28T13:22:26.076Z,20.50
2019-02-28T13:24:54.630Z,19.53
2019-02-28T13:27:23.276Z,20.67
2019-02-28T13:29:53.226Z,20.70
2019-02-28T13:32:22.044Z,18.60
2019-02-28T13:34:50.453Z,19.43
2019-02-28T13:37:18.839Z,18.90
2019-02-28T13:39:47.242Z,19.37
2019-02-28T13:42:15.968Z,19.30
2019-02-28T13:44:44.371Z,18.67
2019-02-28T13:47:13.152Z,20.13
2019-02-28T13:49:41.821Z,19.30
2019-02-28T13:52:10.292Z,19.70
2019-02-28T13:54:42.148Z,19.53
2019-02-28T13:57:10.033Z,18.87
2019-02-28T13:59:39.253Z,20.40
2019-02-28T14:02:07.617Z,19.43
2019-02-28T14:04:36.016Z,19.10
2019-02-28T14:07:04.674Z,20.00
2019-02-28T14:09:33.315Z,19.40
2019-02-28T14:12:01.773Z,19.37
2019-02-28T14:14:30.161Z,20.10
2019-02-28T14:17:01.322Z,21.10
2019-02-28T14:19:28.738Z,19.57
2019-02-28T14:21:57.150Z,18.70
2019-02-28T14:24:27.507Z,20.10
2019-02-28T14:26:55.993Z,17.90
2019-02-28T14:29:24.586Z,18.30
2019-02-28T14:31:52.983Z,17.43
2019-02-28T14:34:21.458Z,18.33
2019-02-28T14:36:49.848Z,18.97
2019-02-28T14:39:18.234Z,18.13
2019-02-28T14:41:46.890Z,16.67
2019-02-28T14:44:15.585Z,17.83
2019-02-28T14:46:43.989Z,17.03
2019-02-28T14:49:13.401Z,18.03
2019-02-28T14:51:42.756Z,18.03
2019-02-28T14:54:11.445Z,17.87
2019-02-28T14:56:42.246Z,16.27
2019-02-28T14:59:10.556Z,16.67
2019-02-28T15:01:39.249Z,19.83
2019-02-28T15:04:08.716Z,19.20
2019-02-28T15:06:38.129Z,18.80
2019-02-28T15:09:46.416Z,17.43
2019-02-28T15:12:14.817Z,18.80
2019-02-28T15:15:02.544Z,16.77
2019-02-28T15:17:38.712Z,17.43
2019-02-28T15:20:47.808Z,17.30
2019-02-28T15:23:16.556Z,17.00
2019-02-28T15:25:44.949Z,16.07
2019-02-28T15:28:13.926Z,16.97
2019-02-28T15:30:43.526Z,18.30
2019-02-28T15:33:12.224Z,16.80
2019-02-28T15:35:40.627Z,16.13
2019-02-28T15:38:10.434Z,17.37
2019-02-28T15:41:19.348Z,18.40
2019-02-28T15:43:50.318Z,20.10
2019-02-28T15:46:18.149Z,21.77
2019-02-28T15:48:46.836Z,23.40
2019-02-28T15:51:34.876Z,24.10
2019-02-28T15:54:25.177Z,27.07
2019-02-28T15:56:55.390Z,25.90
2019-02-28T15:59:23.392Z,24.50
2019-02-28T16:01:52.149Z,26.40
2019-02-28T16:04:23.535Z,26.20
2019-02-28T16:06:56.629Z,25.47
2019-02-28T16:09:21.401Z,26.50
2019-02-28T16:11:50.953Z,25.97
2019-02-28T16:14:19.337Z,26.87
2019-02-28T16:16:47.738Z,28.83
2019-02-28T16:19:35.468Z,27.33
2019-02-28T16:22:04.164Z,28.27
2019-02-28T16:24:32.852Z,27.87
2019-02-28T16:27:01.253Z,27.73
2019-02-28T16:29:29.912Z,27.47
2019-02-28T16:32:14.121Z,27.10
2019-02-28T16:34:42.471Z,28.60
2019-02-28T16:37:11.135Z,28.37
2019-02-28T16:39:39.533Z,28.70
2019-02-28T16:42:08.402Z,29.73
2019-02-28T16:44:38.312Z,31.80
2019-02-28T16:47:06.716Z,28.50
2019-02-28T16:49:35.101Z,27.97
2019-02-28T16:52:06.074Z,26.23
2019-02-28T16:54:33.975Z,27.37
2019-02-28T16:57:21.700Z,27.80
2019-02-28T16:59:50.409Z,28.63
2019-02-28T17:02:18.787Z,24.17
2019-02-28T17:05:28.356Z,24.10
2019-02-28T17:08:37.230Z,22.80
2019-02-28T17:11:05.932Z,21.13
2019-02-28T17:17:02.109Z,22.53
2019-02-28T17:19:49.858Z,23.13
2019-02-28T17:22:18.240Z,22.07
2019-02-28T17:25:06.543Z,22.83
2019-02-28T17:33:22.568Z,18.43
2019-02-28T17:35:51.259Z,20.00
2019-02-28T17:38:39.013Z,20.60
2019-02-28T17:41:07.432Z,20.70
2019-02-28T17:44:15.732Z,19.80
2019-02-28T17:47:25.690Z,21.80
2019-02-28T17:50:34.116Z,20.30
2019-02-28T17:53:45.713Z,21.90
2019-02-28T17:56:51.114Z,23.00
2019-02-28T17:59:58.088Z,22.47
2019-02-28T18:03:06.442Z,23.67
2019-02-28T18:06:13.662Z,21.90
2019-02-28T18:09:20.650Z,23.90
2019-02-28T18:12:44.246Z,22.47
2019-02-28T18:15:37.701Z,23.70
2019-02-28T18:18:44.689Z,25.90
2019-02-28T18:21:53.222Z,28.53
2019-02-28T18:25:01.819Z,28.37
2019-02-28T18:28:08.808Z,26.40
2019-02-28T18:31:19.249Z,27.57
2019-02-28T18:34:05.487Z,28.17
2019-02-28T18:36:34.268Z,27.00
2019-02-28T18:39:22.324Z,25.47
2019-02-28T18:41:50.891Z,24.70
2019-02-28T18:44:19.284Z,22.83
2019-02-28T18:46:48.902Z,21.50
2019-02-28T18:49:37.424Z,20.50
2019-02-28T18:52:05.829Z,20.30
2019-02-28T18:54:34.490Z,17.60
2019-02-28T18:57:02.880Z,16.53
2019-02-28T18:59:31.557Z,16.10
2019-02-28T19:01:59.946Z,15.43
2019-02-28T19:04:47.683Z,14.93
2019-02-28T19:07:16.352Z,14.43
2019-02-28T19:09:44.756Z,14.70
2019-02-28T19:12:13.403Z,15.23
2019-02-28T19:14:42.108Z,14.37
2019-02-28T19:17:10.505Z,12.33
2019-02-28T19:19:39.173Z,14.40
2019-02-28T19:22:07.572Z,12.40
2019-02-28T19:24:55.588Z,14.00
2019-02-28T19:27:24.276Z,12.03
2019-02-28T19:29:52.661Z,11.57
2019-02-28T19:32:21.284Z,11.53
2019-02-28T19:34:49.684Z,11.37
2019-02-28T19:37:18.067Z,9.93
2019-02-28T19:39:46.714Z,10.83
2019-02-28T19:42:15.094Z,9.60
2019-02-28T19:44:43.739Z,10.60
2019-02-28T19:47:12.135Z,10.10
2019-02-28T19:49:40.820Z,9.27
2019-02-28T19:52:09.493Z,10.17
2019-02-28T19:54:37.877Z,9.20
2019-02-28T19:57:06.554Z,8.90
2019-02-28T19:59:35.250Z,9.30
2019-02-28T20:02:03.714Z,9.40
2019-02-28T20:04:32.093Z,8.63
2019-02-28T20:07:00.789Z,8.90
2019-02-28T20:09:29.471Z,9.53
2019-02-28T20:11:57.924Z,8.00
2019-02-28T20:14:26.654Z,7.70
2019-02-28T20:16:55.343Z,7.87
2019-02-28T20:19:24.012Z,7.80
2019-02-28T20:21:52.802Z,7.33
2019-02-28T20:24:21.242Z,7.80
2019-02-28T20:29:44.982Z,8.73
2019-02-28T20:32:13.761Z,8.43
2019-02-28T20:34:42.142Z,8.23
2019-02-28T20:37:10.846Z,8.10
2019-02-28T20:39:39.207Z,7.90
2019-02-28T20:42:07.657Z,8.10
2019-02-28T20:44:36.367Z,8.30
2019-02-28T20:47:05.159Z,7.93
2019-02-28T20:49:33.565Z,8.43
2019-02-28T20:52:01.935Z,7.47
2019-02-28T20:54:30.333Z,8.93
2019-02-28T20:56:58.787Z,8.37
2019-02-28T20:59:27.167Z,8.87
2019-02-28T21:01:55.584Z,8.37
2019-02-28T21:04:23.959Z,9.00
2019-02-28T21:06:52.702Z,8.13
2019-02-28T21:09:21.086Z,9.10
2019-02-28T21:11:49.867Z,7.87
2019-02-28T21:14:18.307Z,8.03
2019-02-28T21:16:47.039Z,8.27
2019-02-28T21:19:15.719Z,7.03
2019-02-28T21:22:24.265Z,7.10
2019-02-28T21:24:52.888Z,7.70
2019-02-28T21:27:21.267Z,7.47
2019-02-28T21:29:49.667Z,6.80
2019-02-28T21:32:18.049Z,7.57
2019-02-28T21:34:46.748Z,7.57
2019-02-28T21:37:15.435Z,7.23
2019-02-28T21:39:44.121Z,6.90
2019-02-28T21:42:12.596Z,7.90
2019-02-28T21:44:40.955Z,7.27
2019-02-28T21:47:09.664Z,7.67
2019-02-28T21:49:38.289Z,7.30
2019-02-28T21:52:06.736Z,8.13
2019-02-28T21:54:35.119Z,7.93
2019-02-28T21:57:22.887Z,7.60
2019-02-28T21:59:51.533Z,7.10
2019-02-28T22:02:20.214Z,7.97
2019-02-28T22:04:48.611Z,7.10
2019-02-28T22:07:17.291Z,7.33
2019-02-28T22:09:45.693Z,6.20
2019-02-28T22:12:14.072Z,6.63
2019-02-28T22:14:42.454Z,6.93
2019-02-28T22:17:10.854Z,7.03
2019-02-28T22:19:39.236Z,6.30
2019-02-28T22:22:07.635Z,7.50
2019-02-28T22:24:36.020Z,6.53
2019-02-28T22:27:04.486Z,6.50
2019-02-28T22:29:32.878Z,7.40
2019-02-28T22:37:29.835Z,6.43
2019-02-28T22:39:58.231Z,6.20
2019-02-28T22:42:26.623Z,6.50
2019-02-28T22:44:55.016Z,6.10
2019-02-28T22:47:23.399Z,6.97
2019-02-28T22:49:52.024Z,7.37
2019-02-28T22:52:20.760Z,6.20
2019-02-28T22:54:49.449Z,6.20
2019-02-28T22:57:18.133Z,5.10
2019-02-28T22:59:46.821Z,5.90
2019-02-28T23:02:15.222Z,5.63
2019-02-28T23:04:43.606Z,6.03
2019-02-28T23:07:12.003Z,5.80
2019-02-28T23:09:40.390Z,5.83
2019-02-28T23:12:08.766Z,5.53
2019-02-28T23:14:37.162Z,5.40
2019-02-28T23:17:05.534Z,5.47
2019-02-28T23:19:33.940Z,5.40
2019-02-28T23:22:02.316Z,5.20
2019-02-28T23:24:30.695Z,5.43
2019-02-28T23:27:18.427Z,6.40
2019-02-28T23:30:26.743Z,6.13
2019-02-28T23:33:14.889Z,6.57
2019-02-28T23:35:43.292Z,6.50
2019-02-28T23:38:11.672Z,6.93
2019-02-28T23:40:40.339Z,6.27
2019-02-28T23:43:08.727Z,7.23
2019-02-28T23:45:37.162Z,7.30
2019-02-28T23:48:05.632Z,6.83
2019-02-28T23:50:34.016Z,6.90
2019-02-28T23:53:02.407Z,7.10
2019-02-28T23:55:30.791Z,7.73
2019-02-28T23:57:59.195Z,7.90
